createdAt,value
2023-01-26T00:00:33.701Z,38.76
2023-01-26T00:03:02.188Z,35.91
2023-01-26T00:05:30.566Z,32.30
2023-01-26T00:07:59.096Z,35.72
2023-01-26T00:10:27.455Z,36.67
2023-01-26T00:12:57.695Z,40.85
2023-01-26T00:15:27.490Z,29.64
2023-01-26T00:17:56.076Z,30.40
2023-01-26T00:20:24.879Z,33.44
2023-01-26T00:22:54.866Z,30.59
2023-01-26T00:25:23.118Z,34.77
2023-01-26T00:27:51.587Z,32.87
2023-01-26T00:30:21.675Z,29.45
2023-01-26T00:32:51.465Z,34.77
2023-01-26T00:35:18.607Z,28.12
2023-01-26T00:37:48.432Z,34.20
2023-01-26T00:40:16.961Z,31.35
2023-01-26T00:42:45.278Z,29.45
2023-01-26T00:45:14.016Z,29.45
2023-01-26T00:47:42.294Z,32.87
2023-01-26T00:50:11.791Z,32.11
2023-01-26T00:52:39.151Z,35.15
2023-01-26T00:55:09.403Z,36.29
2023-01-26T00:57:37.352Z,35.72
2023-01-26T01:00:07.817Z,33.82
2023-01-26T01:02:37.158Z,35.34
2023-01-26T01:05:06.041Z,35.34
2023-01-26T01:07:34.124Z,27.55
2023-01-26T01:10:02.721Z,31.54
2023-01-26T01:12:30.875Z,39.52
2023-01-26T01:14:59.413Z,36.29
2023-01-26T01:17:28.065Z,30.40
2023-01-26T01:19:55.602Z,30.59
2023-01-26T01:22:24.126Z,31.92
2023-01-26T01:24:52.486Z,36.48
2023-01-26T01:27:20.959Z,34.77
2023-01-26T01:29:51.441Z,34.39
2023-01-26T01:32:21.332Z,35.53
2023-01-26T01:34:50.376Z,32.30
2023-01-26T01:37:18.323Z,36.29
2023-01-26T01:39:46.156Z,33.44
2023-01-26T01:42:20.026Z,29.07
2023-01-26T01:45:28.422Z,34.39
2023-01-26T01:48:01.522Z,34.01
2023-01-26T01:50:39.660Z,39.52
2023-01-26T01:53:17.969Z,36.86
2023-01-26T01:55:48.372Z,32.87
2023-01-26T01:58:19.728Z,39.71
2023-01-26T02:00:46.712Z,36.10
2023-01-26T02:03:21.082Z,35.53
2023-01-26T02:06:09.278Z,34.58
2023-01-26T02:08:53.810Z,39.33
2023-01-26T02:11:40.731Z,38.00
2023-01-26T02:14:14.413Z,32.49
2023-01-26T02:16:44.124Z,35.15
2023-01-26T02:19:55.707Z,29.83
2023-01-26T02:22:53.828Z,25.65
2023-01-26T02:25:54.105Z,35.34
2023-01-26T02:28:28.124Z,37.62
2023-01-26T02:30:58.209Z,38.38
2023-01-26T02:33:32.270Z,34.77
2023-01-26T02:36:03.885Z,39.33
2023-01-26T02:38:42.892Z,38.57
2023-01-26T02:41:40.095Z,38.76
2023-01-26T02:44:13.588Z,38.38
2023-01-26T02:46:43.365Z,42.56
2023-01-26T02:49:30.419Z,46.36
2023-01-26T02:52:00.213Z,35.15
2023-01-26T02:54:48.699Z,38.57
2023-01-26T02:57:18.731Z,41.04
2023-01-26T02:59:48.444Z,36.86
2023-01-26T03:02:19.352Z,42.75
2023-01-26T03:04:49.264Z,37.62
2023-01-26T03:07:19.167Z,38.95
2023-01-26T03:09:48.941Z,38.00
2023-01-26T03:12:19.138Z,41.99
2023-01-26T03:15:08.926Z,38.38
2023-01-26T03:17:39.029Z,46.74
2023-01-26T03:20:29.562Z,44.84
2023-01-26T03:23:17.955Z,42.94
2023-01-26T03:26:06.035Z,44.46
2023-01-26T03:28:35.817Z,42.56
2023-01-26T03:31:07.456Z,39.33
2023-01-26T03:33:37.261Z,41.99
2023-01-26T03:36:08.010Z,44.46
2023-01-26T03:38:35.554Z,41.80
2023-01-26T03:41:22.648Z,40.28
2023-01-26T03:44:11.025Z,39.52
2023-01-26T03:46:59.477Z,40.66
2023-01-26T03:49:47.902Z,44.27
2023-01-26T03:52:36.394Z,39.14
2023-01-26T03:55:25.853Z,49.40
2023-01-26T03:57:55.716Z,44.84
2023-01-26T04:00:25.467Z,42.75
2023-01-26T04:03:13.937Z,38.57
2023-01-26T04:06:15.890Z,40.85
2023-01-26T04:08:49.392Z,43.89
2023-01-26T04:11:17.108Z,38.95
2023-01-26T04:14:05.429Z,37.24
2023-01-26T04:16:53.931Z,44.08
2023-01-26T04:19:42.677Z,41.42
2023-01-26T04:22:14.566Z,45.03
2023-01-26T04:24:44.069Z,43.51
2023-01-26T04:27:13.812Z,44.46
2023-01-26T04:29:43.674Z,36.86
2023-01-26T04:32:13.440Z,45.98
2023-01-26T04:34:43.216Z,39.52
2023-01-26T04:37:13.004Z,36.67
2023-01-26T04:39:42.765Z,44.27
2023-01-26T04:42:15.141Z,43.89
2023-01-26T04:44:43.513Z,46.93
2023-01-26T04:47:13.327Z,35.53
2023-01-26T04:49:43.186Z,38.00
2023-01-26T04:52:14.289Z,41.80
2023-01-26T04:54:43.391Z,35.72
2023-01-26T04:57:13.203Z,41.61
2023-01-26T04:59:43.090Z,36.48
2023-01-26T05:02:12.898Z,40.28
2023-01-26T05:04:42.596Z,36.67
2023-01-26T05:07:12.530Z,37.43
2023-01-26T05:09:42.257Z,44.65
2023-01-26T05:12:33.335Z,35.34
2023-01-26T05:15:02.051Z,30.97
2023-01-26T05:17:30.287Z,34.96
2023-01-26T05:19:58.663Z,29.45
2023-01-26T05:22:27.786Z,30.78
2023-01-26T05:24:55.534Z,36.48
2023-01-26T05:27:24.037Z,32.87
2023-01-26T05:29:54.991Z,33.06
2023-01-26T05:32:23.683Z,35.72
2023-01-26T05:34:52.548Z,32.87
2023-01-26T05:37:20.978Z,31.92
2023-01-26T05:39:49.038Z,35.15
2023-01-26T05:42:17.730Z,32.49
2023-01-26T05:44:45.929Z,36.67
2023-01-26T05:47:14.547Z,37.81
2023-01-26T05:49:43.341Z,31.54
2023-01-26T05:52:15.315Z,31.35
2023-01-26T05:54:45.439Z,27.17
2023-01-26T05:57:17.021Z,31.54
2023-01-26T05:59:46.468Z,31.92
2023-01-26T06:02:16.514Z,27.36
2023-01-26T06:04:46.410Z,33.44
2023-01-26T06:07:16.232Z,31.73
2023-01-26T06:09:46.072Z,37.05
2023-01-26T06:12:23.339Z,32.11
2023-01-26T06:14:50.380Z,33.82
2023-01-26T06:17:18.498Z,31.92
2023-01-26T06:19:48.400Z,42.75
2023-01-26T06:22:18.175Z,32.68
2023-01-26T06:24:47.945Z,36.48
2023-01-26T06:27:18.932Z,38.38
2023-01-26T06:29:48.206Z,42.94
2023-01-26T06:32:18.141Z,34.58
2023-01-26T06:34:47.897Z,33.82
2023-01-26T06:37:17.631Z,38.19
2023-01-26T06:39:47.454Z,39.52
2023-01-26T06:42:17.463Z,38.57
2023-01-26T06:44:47.277Z,34.77
2023-01-26T06:47:17.073Z,33.82
2023-01-26T06:49:46.825Z,28.88
2023-01-26T06:52:27.438Z,34.96
2023-01-26T06:55:00.486Z,35.72
2023-01-26T06:57:29.517Z,33.06
2023-01-26T06:59:58.014Z,35.34
2023-01-26T07:02:26.363Z,33.44
2023-01-26T07:04:54.679Z,24.89
2023-01-26T07:07:23.067Z,33.63
2023-01-26T07:09:51.844Z,35.72
2023-01-26T07:12:20.383Z,31.16
2023-01-26T07:14:48.510Z,28.31
2023-01-26T07:17:17.162Z,34.96
2023-01-26T07:19:45.230Z,36.10
2023-01-26T07:22:15.093Z,32.87
2023-01-26T07:24:42.011Z,32.30
2023-01-26T07:27:10.415Z,31.16
2023-01-26T07:29:38.786Z,28.69
2023-01-26T07:32:07.823Z,38.00
2023-01-26T07:34:36.113Z,38.38
2023-01-26T07:37:05.189Z,34.58
2023-01-26T07:39:32.689Z,34.20
2023-01-26T07:42:00.968Z,34.96
2023-01-26T07:44:29.305Z,32.68
2023-01-26T07:46:58.437Z,28.31
2023-01-26T07:49:26.173Z,29.26
2023-01-26T07:51:54.588Z,33.44
2023-01-26T07:54:23.120Z,31.73
2023-01-26T07:56:54.573Z,31.16
2023-01-26T07:59:24.149Z,35.91
2023-01-26T08:01:52.576Z,30.02
2023-01-26T08:04:19.631Z,29.64
2023-01-26T08:06:50.695Z,31.16
2023-01-26T08:09:20.276Z,35.72
2023-01-26T08:11:50.072Z,36.48
2023-01-26T08:14:19.789Z,33.63
2023-01-26T08:16:49.623Z,29.45
2023-01-26T08:19:19.440Z,33.63
2023-01-26T08:21:49.153Z,35.91
2023-01-26T08:24:19.254Z,31.35
2023-01-26T08:26:49.038Z,31.54
2023-01-26T08:29:20.687Z,26.41
2023-01-26T08:31:49.910Z,29.83
2023-01-26T08:34:21.945Z,31.35
2023-01-26T08:36:51.489Z,31.16
2023-01-26T08:39:21.243Z,33.06
2023-01-26T08:41:51.100Z,39.14
2023-01-26T08:44:20.812Z,32.11
2023-01-26T08:46:50.545Z,30.78
2023-01-26T08:49:20.272Z,24.13
2023-01-26T08:51:50.085Z,32.30
2023-01-26T08:54:19.927Z,31.73
2023-01-26T08:56:49.852Z,36.86
2023-01-26T08:59:19.607Z,30.97
2023-01-26T09:01:51.215Z,32.68
2023-01-26T09:04:19.684Z,30.78
2023-01-26T09:06:49.482Z,27.74
2023-01-26T09:09:19.329Z,26.41
2023-01-26T09:11:49.158Z,25.46
2023-01-26T09:14:18.979Z,24.89
2023-01-26T09:16:48.767Z,29.83
2023-01-26T09:19:18.582Z,26.22
2023-01-26T09:21:53.960Z,29.64
2023-01-26T09:24:23.087Z,26.03
2023-01-26T09:26:52.883Z,23.75
2023-01-26T09:29:22.618Z,32.87
2023-01-26T09:31:52.488Z,28.12
2023-01-26T09:34:22.404Z,34.96
2023-01-26T09:36:52.152Z,35.72
2023-01-26T09:39:21.844Z,31.16
2023-01-26T09:42:45.901Z,30.40
2023-01-26T09:46:01.223Z,28.50
2023-01-26T09:48:52.110Z,27.74
2023-01-26T09:51:34.106Z,31.54
2023-01-26T09:54:09.841Z,32.68
2023-01-26T09:56:40.178Z,26.98
2023-01-26T09:59:43.161Z,31.73
2023-01-26T10:02:31.541Z,26.98
2023-01-26T10:05:14.565Z,24.32
2023-01-26T10:07:45.325Z,26.98
2023-01-26T10:10:39.257Z,26.22
2023-01-26T10:13:16.893Z,24.70
2023-01-26T10:16:03.422Z,27.93
2023-01-26T10:18:50.065Z,19.38
2023-01-26T10:21:29.121Z,20.52
2023-01-26T10:24:02.776Z,24.51
2023-01-26T10:26:34.285Z,23.75
2023-01-26T10:29:04.435Z,23.56
2023-01-26T10:31:34.808Z,23.75
2023-01-26T10:34:13.080Z,19.00
2023-01-26T10:36:44.695Z,21.66
2023-01-26T10:39:18.095Z,23.18
2023-01-26T10:42:03.377Z,23.94
2023-01-26T10:44:39.437Z,20.14
2023-01-26T10:47:17.770Z,24.13
2023-01-26T10:49:48.854Z,18.05
2023-01-26T10:52:27.768Z,16.53
2023-01-26T10:55:13.334Z,18.62
2023-01-26T10:57:43.361Z,18.43
2023-01-26T11:00:20.073Z,15.96
2023-01-26T11:03:14.455Z,17.48
2023-01-26T11:05:48.000Z,18.81
2023-01-26T11:08:50.581Z,15.01
2023-01-26T11:11:30.034Z,19.57
2023-01-26T11:14:17.776Z,21.85
2023-01-26T11:17:21.258Z,23.18
2023-01-26T11:19:57.230Z,19.76
2023-01-26T11:22:42.362Z,21.28
2023-01-26T11:25:28.045Z,21.09
2023-01-26T11:28:57.621Z,21.09
2023-01-26T11:31:52.373Z,20.90
2023-01-26T11:34:43.784Z,19.00
2023-01-26T11:37:47.651Z,19.76
2023-01-26T11:40:51.402Z,21.66
2023-01-26T11:44:16.319Z,16.72
2023-01-26T11:47:13.764Z,26.03
2023-01-26T11:50:27.214Z,24.51
2023-01-26T11:53:42.928Z,24.89
2023-01-26T11:56:43.800Z,26.22
2023-01-26T11:59:38.938Z,24.51
2023-01-26T12:02:35.576Z,20.14
2023-01-26T12:05:23.533Z,21.47
2023-01-26T12:08:05.227Z,22.04
2023-01-26T12:10:51.033Z,26.79
2023-01-26T12:13:45.869Z,21.28
2023-01-26T12:16:43.684Z,21.85
2023-01-26T12:19:43.922Z,27.74
2023-01-26T12:22:29.858Z,24.89
2023-01-26T12:25:19.842Z,24.13
2023-01-26T12:28:24.515Z,24.32
2023-01-26T12:31:24.323Z,28.69
2023-01-26T12:33:57.015Z,23.94
2023-01-26T12:36:45.764Z,26.60
2023-01-26T12:39:39.837Z,21.66
2023-01-26T12:42:27.901Z,24.51
2023-01-26T12:45:02.059Z,23.94
2023-01-26T12:47:52.256Z,24.51
2023-01-26T12:50:44.770Z,25.46
2023-01-26T12:53:18.323Z,19.57
2023-01-26T12:56:01.602Z,21.09
2023-01-26T12:58:43.118Z,20.33
2023-01-26T13:01:20.794Z,17.86
2023-01-26T13:04:02.690Z,16.91
2023-01-26T13:06:32.511Z,15.58
2023-01-26T13:09:24.588Z,15.96
2023-01-26T13:12:01.228Z,15.01
2023-01-26T13:14:44.126Z,16.34
2023-01-26T13:17:16.474Z,16.34
2023-01-26T13:19:44.647Z,12.16
2023-01-26T13:22:40.330Z,13.87
2023-01-26T13:25:20.451Z,13.87
2023-01-26T13:28:02.737Z,17.10
2023-01-26T13:30:43.636Z,17.29
2023-01-26T13:33:23.710Z,15.39
2023-01-26T13:35:56.105Z,14.06
2023-01-26T13:38:50.324Z,15.01
2023-01-26T13:41:22.247Z,16.91
2023-01-26T13:44:10.267Z,14.44
2023-01-26T13:46:49.749Z,19.95
2023-01-26T13:49:40.643Z,15.77
2023-01-26T13:52:25.596Z,19.00
2023-01-26T13:55:01.976Z,13.49
2023-01-26T13:57:31.914Z,15.77
2023-01-26T14:00:02.074Z,16.91
2023-01-26T14:02:35.473Z,17.86
2023-01-26T14:05:06.220Z,25.46
2023-01-26T14:07:43.403Z,21.28
2023-01-26T14:10:22.324Z,21.66
2023-01-26T14:12:58.873Z,16.91
2023-01-26T14:15:33.117Z,19.95
2023-01-26T14:18:05.430Z,21.28
2023-01-26T14:20:39.595Z,20.71
2023-01-26T14:23:21.204Z,19.57
2023-01-26T14:26:06.679Z,22.99
2023-01-26T14:28:43.212Z,25.46
2023-01-26T14:31:22.388Z,19.19
2023-01-26T14:33:57.936Z,23.18
2023-01-26T14:36:39.115Z,22.61
2023-01-26T14:39:21.019Z,22.23
2023-01-26T14:41:50.679Z,26.22
2023-01-26T14:44:18.926Z,22.61
2023-01-26T14:46:58.587Z,26.03
2023-01-26T14:49:43.342Z,32.30
2023-01-26T14:52:25.633Z,25.65
2023-01-26T14:54:59.923Z,25.27
2023-01-26T14:57:31.606Z,23.56
2023-01-26T15:00:08.984Z,26.03
2023-01-26T15:02:47.405Z,31.92
2023-01-26T15:05:25.773Z,27.17
2023-01-26T15:08:03.261Z,34.58
2023-01-26T15:10:40.680Z,30.40
2023-01-26T15:13:10.330Z,31.73
2023-01-26T15:15:48.958Z,30.59
2023-01-26T15:18:22.043Z,34.96
2023-01-26T15:21:14.655Z,30.40
2023-01-26T15:23:50.615Z,36.29
2023-01-26T15:26:32.325Z,37.05
2023-01-26T15:29:26.589Z,38.19
2023-01-26T15:31:57.891Z,37.05
2023-01-26T15:34:42.262Z,36.29
2023-01-26T15:37:28.972Z,36.86
2023-01-26T15:39:58.999Z,38.57
2023-01-26T15:42:31.085Z,32.68
2023-01-26T15:45:01.005Z,32.87
2023-01-26T15:47:30.786Z,40.28
2023-01-26T15:50:00.627Z,38.38
2023-01-26T15:52:30.756Z,34.39
2023-01-26T15:55:00.315Z,41.23
2023-01-26T15:57:31.637Z,46.17
2023-01-26T16:00:01.959Z,46.36
2023-01-26T16:02:32.791Z,36.67
2023-01-26T16:05:02.433Z,42.18
2023-01-26T16:07:32.130Z,33.44
2023-01-26T16:10:02.276Z,40.66
2023-01-26T16:12:32.559Z,39.14
2023-01-26T16:15:03.155Z,37.43
2023-01-26T16:17:33.157Z,40.66
2023-01-26T16:20:03.228Z,40.28
2023-01-26T16:22:34.071Z,34.96
2023-01-26T16:25:01.571Z,41.23
2023-01-26T16:27:29.844Z,45.03
2023-01-26T16:29:58.326Z,36.29
2023-01-26T16:32:30.613Z,38.00
2023-01-26T16:34:58.162Z,38.38
2023-01-26T16:37:26.636Z,41.42
2023-01-26T16:39:55.000Z,37.24
2023-01-26T16:42:23.761Z,42.18
2023-01-26T16:44:51.911Z,42.37
2023-01-26T16:47:20.492Z,35.15
2023-01-26T16:49:48.903Z,35.34
2023-01-26T16:52:17.295Z,37.05
2023-01-26T16:54:48.247Z,32.87
2023-01-26T16:57:17.950Z,37.05
2023-01-26T16:59:47.822Z,34.01
2023-01-26T17:02:27.556Z,32.87
2023-01-26T17:04:57.489Z,36.67
2023-01-26T17:07:27.222Z,35.53
2023-01-26T17:09:57.149Z,40.28
2023-01-26T17:12:27.575Z,40.85
2023-01-26T17:14:57.273Z,34.77
2023-01-26T17:17:27.032Z,34.01
2023-01-26T17:20:03.490Z,39.52
2023-01-26T17:22:43.294Z,41.23
2023-01-26T17:25:11.913Z,39.33
2023-01-26T17:27:42.461Z,32.11
2023-01-26T17:30:11.918Z,42.18
2023-01-26T17:32:39.415Z,36.48
2023-01-26T17:35:10.182Z,46.36
2023-01-26T17:37:39.348Z,44.65
2023-01-26T17:40:10.752Z,53.20
2023-01-26T17:42:40.647Z,39.90
2023-01-26T17:45:11.898Z,43.13
2023-01-26T17:47:43.517Z,50.16
2023-01-26T17:50:13.219Z,48.64
2023-01-26T17:52:42.956Z,49.78
2023-01-26T17:55:13.130Z,47.12
2023-01-26T17:57:43.214Z,52.06
2023-01-26T18:00:14.182Z,45.79
2023-01-26T18:02:43.935Z,51.87
2023-01-26T18:05:14.128Z,46.93
2023-01-26T18:07:44.095Z,54.15
2023-01-26T18:10:13.934Z,52.44
2023-01-26T18:12:43.727Z,44.65
2023-01-26T18:15:13.811Z,44.46
2023-01-26T18:17:43.804Z,50.35
2023-01-26T18:20:15.286Z,45.60
2023-01-26T18:22:44.794Z,42.37
2023-01-26T18:25:16.832Z,46.93
2023-01-26T18:27:47.828Z,45.41
2023-01-26T18:30:18.463Z,44.27
2023-01-26T18:32:49.042Z,49.78
2023-01-26T18:35:18.858Z,41.42
2023-01-26T18:37:48.641Z,46.93
2023-01-26T18:40:19.292Z,41.80
2023-01-26T18:42:50.561Z,48.45
2023-01-26T18:45:20.395Z,53.77
2023-01-26T18:47:50.956Z,47.12
2023-01-26T18:50:20.840Z,45.03
2023-01-26T18:52:51.740Z,49.97
2023-01-26T18:55:21.503Z,49.78
2023-01-26T18:57:55.225Z,46.74
2023-01-26T19:00:25.287Z,41.99
2023-01-26T19:02:55.278Z,50.73
2023-01-26T19:05:25.162Z,46.74
2023-01-26T19:07:54.932Z,52.44
2023-01-26T19:10:24.840Z,51.11
2023-01-26T19:12:54.981Z,48.26
2023-01-26T19:15:24.710Z,51.49
2023-01-26T19:17:54.441Z,47.69
2023-01-26T19:20:25.264Z,46.74
2023-01-26T19:22:57.458Z,51.87
2023-01-26T19:25:27.100Z,56.43
2023-01-26T19:27:57.697Z,52.44
2023-01-26T19:30:27.677Z,55.29
2023-01-26T19:33:16.041Z,52.82
2023-01-26T19:35:45.777Z,51.87
2023-01-26T19:38:16.422Z,50.54
2023-01-26T19:40:49.920Z,48.45
2023-01-26T19:43:21.139Z,48.64
2023-01-26T19:45:54.102Z,59.85
2023-01-26T19:48:28.127Z,56.81
2023-01-26T19:51:20.061Z,51.30
2023-01-26T19:53:53.737Z,56.81
2023-01-26T19:56:35.985Z,55.67
2023-01-26T19:59:10.500Z,53.58
2023-01-26T20:01:40.492Z,52.06
2023-01-26T20:04:14.429Z,65.74
2023-01-26T20:06:44.203Z,61.94
2023-01-26T20:09:11.310Z,37.62
2023-01-26T20:11:39.066Z,49.02
2023-01-26T20:14:11.294Z,50.35
2023-01-26T20:16:40.037Z,55.48
2023-01-26T20:19:13.092Z,51.30
2023-01-26T20:21:42.963Z,50.54
2023-01-26T20:24:15.395Z,54.34
2023-01-26T20:26:45.020Z,48.45
2023-01-26T20:29:17.548Z,53.58
2023-01-26T20:31:47.551Z,53.77
2023-01-26T20:34:18.324Z,46.93
2023-01-26T20:36:49.614Z,46.36
2023-01-26T20:39:24.515Z,46.74
2023-01-26T20:41:55.320Z,48.07
2023-01-26T20:44:24.544Z,46.17
2023-01-26T20:46:54.511Z,52.25
2023-01-26T20:49:24.440Z,50.16
2023-01-26T20:51:54.232Z,57.57
2023-01-26T20:54:24.222Z,50.16
2023-01-26T20:56:54.088Z,49.40
2023-01-26T20:59:24.257Z,55.48
2023-01-26T21:01:54.017Z,58.90
2023-01-26T21:04:24.083Z,57.38
2023-01-26T21:06:55.367Z,51.11
2023-01-26T21:09:22.656Z,48.07
2023-01-26T21:11:50.689Z,55.48
2023-01-26T21:14:19.404Z,51.68
2023-01-26T21:16:47.734Z,52.25
2023-01-26T21:19:16.076Z,62.13
2023-01-26T21:21:44.945Z,60.99
2023-01-26T21:24:13.624Z,59.28
2023-01-26T21:26:41.458Z,57.19
2023-01-26T21:29:15.485Z,46.55
2023-01-26T21:31:49.187Z,52.25
2023-01-26T21:34:18.868Z,44.65
2023-01-26T21:36:48.806Z,40.28
2023-01-26T21:39:21.048Z,50.16
2023-01-26T21:41:57.652Z,49.40
2023-01-26T21:44:29.073Z,52.44
2023-01-26T21:47:03.751Z,46.74
2023-01-26T21:49:32.592Z,52.06
2023-01-26T21:52:20.936Z,51.49
2023-01-26T21:54:48.339Z,53.01
2023-01-26T21:57:35.281Z,45.79
2023-01-26T22:00:05.991Z,45.22
2023-01-26T22:02:35.833Z,56.05
2023-01-26T22:05:07.443Z,48.07
2023-01-26T22:07:37.100Z,55.67
2023-01-26T22:10:08.120Z,56.05
2023-01-26T22:12:37.769Z,52.25
2023-01-26T22:15:08.767Z,47.88
2023-01-26T22:17:37.998Z,54.72
2023-01-26T22:20:09.712Z,52.63
2023-01-26T22:22:38.779Z,48.83
2023-01-26T22:25:09.433Z,48.64
2023-01-26T22:27:40.665Z,43.89
2023-01-26T22:30:10.118Z,45.60
2023-01-26T22:32:38.892Z,45.98
2023-01-26T22:35:09.820Z,42.75
2023-01-26T22:37:39.406Z,46.36
2023-01-26T22:40:10.788Z,46.74
2023-01-26T22:42:39.847Z,39.90
2023-01-26T22:45:10.446Z,47.69
2023-01-26T22:47:41.159Z,44.27
2023-01-26T22:50:11.809Z,47.69
2023-01-26T22:52:40.834Z,41.99
2023-01-26T22:55:10.849Z,38.95
2023-01-26T22:57:40.644Z,41.61
2023-01-26T23:00:12.107Z,37.43
2023-01-26T23:02:40.780Z,31.73
2023-01-26T23:05:10.656Z,35.34
2023-01-26T23:07:40.404Z,28.88
2023-01-26T23:10:10.653Z,29.64
2023-01-26T23:12:40.381Z,30.97
2023-01-26T23:15:10.825Z,25.08
2023-01-26T23:17:40.511Z,24.51
2023-01-26T23:20:11.873Z,27.55
2023-01-26T23:22:41.274Z,30.59
2023-01-26T23:25:30.182Z,26.79
2023-01-26T23:28:03.399Z,25.84
2023-01-26T23:30:32.474Z,23.56
2023-01-26T23:33:02.305Z,20.90
2023-01-26T23:35:32.002Z,26.41
2023-01-26T23:38:01.687Z,29.83
2023-01-26T23:40:31.442Z,26.60
2023-01-26T23:43:15.809Z,26.98
2023-01-26T23:45:49.375Z,24.32
2023-01-26T23:48:20.199Z,26.41
2023-01-26T23:50:59.987Z,23.56
2023-01-26T23:53:29.692Z,22.99
2023-01-26T23:56:10.540Z,22.99
2023-01-26T23:58:40.323Z,21.85
